Time;durP1;ratioP1;P1;durP2;ratioP2;P2;SDS_P1;SDS_P2;PMS_P1;PMS_P2;Temp;Humidity;BMP_temperature;BMP_pressure;BME280_temperature;BME280_humidity;BME280_pressure;Samples;Min_cycle;Max_cycle;Signal;HPM_P1;HPM_P2
2021/06/20 00:00:23;;;;;;;8.07;3.00;;;;;;;17.02;85.84;93733.91;6109651;23;20045;-79
2021/06/20 00:02:49;;;;;;;6.25;3.05;;;;;;;17.16;85.34;93729.06;6084871;23;20022;-79
2021/06/20 00:05:18;;;;;;;4.50;3.30;;;;;;;17.26;85.10;93734.75;6116981;23;20018;-78
2021/06/20 00:07:45;;;;;;;6.20;3.33;;;;;;;17.17;84.82;93722.59;6112587;23;20345;-79
2021/06/20 00:10:13;;;;;;;4.38;3.42;;;;;;;17.12;85.36;93722.81;6111727;23;20028;-79
2021/06/20 00:12:40;;;;;;;3.45;3.15;;;;;;;17.01;85.17;93721.69;6124274;23;20010;-79
2021/06/20 00:15:09;;;;;;;5.68;2.80;;;;;;;16.99;85.67;93722.03;6084461;23;20078;-79
2021/06/20 00:17:36;;;;;;;3.58;3.28;;;;;;;16.99;85.38;93718.56;6111232;23;20022;-79
2021/06/20 00:20:01;;;;;;;7.35;3.80;;;;;;;16.97;85.35;93718.09;6085648;23;20088;-78
2021/06/20 00:22:26;;;;;;;3.97;3.03;;;;;;;16.98;85.48;93711.66;6119618;23;20037;-79
2021/06/20 00:24:52;;;;;;;5.60;3.38;;;;;;;17.02;85.33;93720.56;6113858;23;20012;-79
2021/06/20 00:27:17;;;;;;;3.58;3.28;;;;;;;16.96;85.35;93716.56;6111975;23;20120;-79
2021/06/20 00:29:43;;;;;;;4.55;3.50;;;;;;;17.04;85.25;93721.03;6115014;23;20072;-79
2021/06/20 00:32:08;;;;;;;6.88;3.35;;;;;;;17.16;84.90;93713.03;6107580;23;20116;-79
2021/06/20 00:34:34;;;;;;;3.83;3.45;;;;;;;17.16;85.05;93718.38;6119168;23;20050;-79
2021/06/20 00:36:59;;;;;;;4.68;2.97;;;;;;;17.22;84.75;93717.06;6123649;23;20444;-79
2021/06/20 00:39:25;;;;;;;6.60;3.55;;;;;;;17.14;84.73;93718.72;6111113;23;20018;-79
2021/06/20 00:41:50;;;;;;;6.22;3.38;;;;;;;17.17;85.03;93725.28;6110618;23;20021;-79
2021/06/20 00:44:16;;;;;;;5.22;3.40;;;;;;;17.17;84.98;93741.31;6111615;23;20014;-78
2021/06/20 00:46:41;;;;;;;4.43;3.50;;;;;;;16.98;85.21;93728.47;6111138;23;20607;-79
2021/06/20 00:49:07;;;;;;;7.07;4.20;;;;;;;16.97;85.69;93731.47;6120356;23;20609;-79
2021/06/20 00:51:32;;;;;;;5.35;3.10;;;;;;;17.11;85.02;93723.94;6087861;23;20065;-79
2021/06/20 00:53:58;;;;;;;6.63;3.50;;;;;;;17.09;84.92;93726.16;6110392;23;20124;-79
2021/06/20 00:56:23;;;;;;;4.82;3.15;;;;;;;16.95;85.35;93720.34;6111382;23;20014;-79
2021/06/20 00:59:01;;;;;;;7.15;3.45;;;;;;;16.86;85.59;93710.50;6109812;23;20060;-79
2021/06/20 01:01:27;;;;;;;3.47;2.97;;;;;;;16.82;85.93;93714.16;6111310;23;20010;-78
2021/06/20 01:03:53;;;;;;;8.48;4.47;;;;;;;16.81;85.81;93700.03;6087433;23;20688;-79
2021/06/20 01:06:18;;;;;;;2.80;2.50;;;;;;;16.97;85.08;93699.44;6110955;23;20559;-78
2021/06/20 01:08:44;;;;;;;3.50;2.97;;;;;;;16.98;84.87;93706.31;6084292;23;20128;-79
2021/06/20 01:11:09;;;;;;;4.40;3.03;;;;;;;16.91;85.18;93690.84;6113605;23;20022;-79
2021/06/20 01:13:34;;;;;;;6.47;2.88;;;;;;;17.02;84.67;93693.88;6108859;23;20017;-78
2021/06/20 01:16:00;;;;;;;4.72;3.50;;;;;;;16.93;84.69;93677.97;6123308;23;20483;-79
2021/06/20 01:18:26;;;;;;;3.50;3.20;;;;;;;16.96;84.79;93695.97;6113790;23;20022;-79
2021/06/20 01:20:51;;;;;;;3.47;3.00;;;;;;;16.92;85.22;93696.97;6114664;23;20029;-79
2021/06/20 01:23:17;;;;;;;8.23;3.22;;;;;;;16.78;85.45;93689.25;6112142;23;20017;-80
2021/06/20 01:25:43;;;;;;;8.70;2.97;;;;;;;16.93;85.31;93701.19;6086986;23;20097;-79
2021/06/20 01:28:09;;;;;;;8.05;3.75;;;;;;;16.86;85.38;93702.50;6112707;23;20006;-79
2021/06/20 01:30:44;;;;;;;3.45;3.10;;;;;;;16.91;85.71;93703.44;6125691;23;20021;-79
2021/06/20 01:33:11;;;;;;;4.00;3.60;;;;;;;16.95;85.84;93709.66;6112584;23;20018;-79
2021/06/20 01:35:37;;;;;;;8.00;3.03;;;;;;;16.87;85.48;93690.72;6111809;23;20032;-79
2021/06/20 01:38:05;;;;;;;4.45;3.83;;;;;;;16.92;85.65;93708.41;6116594;23;20453;-79
2021/06/20 01:40:31;;;;;;;4.18;3.53;;;;;;;17.03;85.36;93708.78;6113223;23;20380;-79
2021/06/20 01:42:57;;;;;;;4.60;3.13;;;;;;;16.98;85.37;93703.66;6123906;23;20013;-79
2021/06/20 01:45:26;;;;;;;4.07;2.83;;;;;;;17.05;84.92;93701.25;6086429;23;20583;-79
2021/06/20 01:47:54;;;;;;;6.47;3.70;;;;;;;16.83;85.43;93700.50;6111576;23;20018;-79
2021/06/20 01:50:20;;;;;;;3.92;3.47;;;;;;;16.85;85.57;93711.66;6118090;23;20089;-78
2021/06/20 01:52:46;;;;;;;6.65;3.53;;;;;;;16.98;84.60;93703.66;6118087;23;20093;-79
2021/06/20 01:55:14;;;;;;;3.42;3.10;;;;;;;16.88;84.85;93718.97;6086586;23;20095;-78
2021/06/20 01:57:41;;;;;;;4.15;3.78;;;;;;;16.85;84.91;93718.88;6113648;23;20084;-78
2021/06/20 02:00:10;;;;;;;7.75;3.42;;;;;;;16.68;84.70;93714.47;6111761;23;20021;-79
2021/06/20 02:02:36;;;;;;;3.78;3.17;;;;;;;16.60;85.34;93717.22;6112001;23;20492;-79
2021/06/20 02:05:02;;;;;;;5.93;4.82;;;;;;;16.52;86.14;93716.13;6084656;23;20049;-79
2021/06/20 02:07:28;;;;;;;4.57;4.18;;;;;;;16.45;86.01;93710.56;6086263;23;20064;-78
2021/06/20 02:09:55;;;;;;;7.97;3.45;;;;;;;16.54;85.69;93715.81;6087154;23;19998;-79
2021/06/20 02:12:23;;;;;;;6.95;3.60;;;;;;;16.48;86.05;93720.56;6113396;23;20022;-79
2021/06/20 02:14:50;;;;;;;4.53;3.83;;;;;;;16.52;85.53;93721.47;6111183;23;20029;-79
2021/06/20 02:17:22;;;;;;;5.40;4.15;;;;;;;16.56;85.52;93717.06;6110586;23;20032;-78
2021/06/20 02:19:47;;;;;;;4.45;3.80;;;;;;;16.52;85.34;93715.38;6118286;23;20384;-79
2021/06/20 02:22:14;;;;;;;4.97;3.38;;;;;;;16.42;85.72;93721.88;6121837;23;20080;-79
2021/06/20 02:24:40;;;;;;;5.93;4.65;;;;;;;16.29;85.95;93733.59;6123043;23;20013;-79
2021/06/20 02:27:09;;;;;;;4.63;4.22;;;;;;;16.25;86.38;93728.13;6084778;23;20018;-79
2021/06/20 02:29:34;;;;;;;12.23;4.60;;;;;;;16.33;86.33;93729.16;6114513;23;20093;-79
2021/06/20 02:32:00;;;;;;;4.05;3.30;;;;;;;16.36;86.06;93733.84;6118001;23;20461;-79
2021/06/20 02:34:25;;;;;;;11.48;3.95;;;;;;;16.35;86.20;93726.97;6120025;23;20316;-78
2021/06/20 02:36:51;;;;;;;4.10;3.35;;;;;;;16.36;86.15;93728.53;6087326;23;20016;-78
2021/06/20 02:39:16;;;;;;;6.32;3.90;;;;;;;16.17;85.86;93712.19;6112863;23;20021;-79
2021/06/20 02:41:42;;;;;;;5.47;3.90;;;;;;;16.17;85.92;93726.31;6113226;23;20079;-79
2021/06/20 02:44:07;;;;;;;4.00;3.60;;;;;;;16.18;86.13;93727.06;6116792;23;20022;-78
2021/06/20 02:46:33;;;;;;;3.78;3.47;;;;;;;16.17;86.28;93730.88;6118844;23;20014;-80
2021/06/20 02:48:58;;;;;;;4.63;4.05;;;;;;;16.20;86.00;93725.66;6122379;23;20487;-78
2021/06/20 02:51:24;;;;;;;12.45;4.65;;;;;;;16.21;86.19;93727.22;6111298;23;20057;-78
2021/06/20 02:53:49;;;;;;;7.25;3.47;;;;;;;16.33;85.80;93726.50;6115123;23;20025;-78
2021/06/20 02:56:15;;;;;;;4.80;4.30;;;;;;;16.11;85.92;93716.16;6110096;23;20469;-78
2021/06/20 02:58:43;;;;;;;4.32;3.67;;;;;;;15.92;86.13;93714.72;6118289;23;20014;-79
2021/06/20 03:01:08;;;;;;;4.65;3.58;;;;;;;16.10;86.03;93741.25;6120799;23;20021;-79
2021/06/20 03:03:34;;;;;;;25.10;3.95;;;;;;;16.18;86.02;93727.06;6087258;23;20009;-79
2021/06/20 03:06:02;;;;;;;3.80;3.50;;;;;;;16.28;85.79;93727.47;6085803;23;20018;-79
2021/06/20 03:08:27;;;;;;;3.35;3.10;;;;;;;16.55;84.86;93714.72;6109146;23;20018;-78
2021/06/20 03:10:53;;;;;;;3.00;2.70;;;;;;;16.97;83.16;93705.53;6085098;23;20701;-78
2021/06/20 03:13:18;;;;;;;4.72;2.58;;;;;;;17.47;81.58;93709.84;6112359;23;20029;-79
2021/06/20 03:15:45;;;;;;;3.47;2.30;;;;;;;17.64;80.03;93690.97;6123208;23;20018;-79
2021/06/20 03:18:11;;;;;;;2.45;2.10;;;;;;;18.29;78.36;93705.91;6111038;23;20021;-79
2021/06/20 03:20:36;;;;;;;5.05;2.15;;;;;;;18.82;76.17;93706.63;6111278;23;20108;-79
2021/06/20 03:23:04;;;;;;;2.10;1.90;;;;;;;19.25;73.86;93697.84;6116507;23;20421;-79
2021/06/20 03:25:30;;;;;;;4.88;2.03;;;;;;;19.77;72.66;93714.47;6119319;23;20014;-79
2021/06/20 03:27:55;;;;;;;2.70;1.27;;;;;;;20.35;69.92;93711.16;6112482;23;20076;-79
2021/06/20 03:30:21;;;;;;;1.77;1.50;;;;;;;20.83;67.87;93696.41;6111194;23;20491;-79
2021/06/20 03:32:47;;;;;;;1.27;1.10;;;;;;;21.34;64.98;93703.16;6113804;23;20014;-79
2021/06/20 03:35:12;;;;;;;2.20;1.40;;;;;;;21.74;62.64;93694.59;6110660;23;20025;-79
2021/06/20 03:37:38;;;;;;;3.13;1.52;;;;;;;22.10;61.00;93700.53;6084517;23;20014;-79
2021/06/20 03:40:04;;;;;;;1.65;1.20;;;;;;;22.68;58.65;93709.78;6123065;23;20009;-79
2021/06/20 03:42:29;;;;;;;1.00;1.00;;;;;;;23.12;56.72;93707.22;6111032;23;20045;-80
2021/06/20 03:44:55;;;;;;;1.67;1.02;;;;;;;23.59;55.77;93703.09;6112267;23;20096;-79
2021/06/20 03:47:20;;;;;;;1.50;1.20;;;;;;;23.93;54.56;93701.06;6083486;23;20037;-79
2021/06/20 03:49:48;;;;;;;3.58;1.20;;;;;;;24.40;53.72;93694.84;6110806;23;20016;-79
2021/06/20 03:52:14;;;;;;;4.28;1.30;;;;;;;24.69;52.31;93693.03;6109003;23;20005;-80
2021/06/20 03:54:39;;;;;;;1.92;1.27;;;;;;;24.94;52.34;93693.94;6087996;23;20002;-79
2021/06/20 03:57:05;;;;;;;2.65;1.30;;;;;;;25.38;51.21;93691.75;6111769;23;20022;-79
2021/06/20 03:59:31;;;;;;;3.80;1.85;;;;;;;25.53;50.77;93689.06;6110887;23;20415;-79
2021/06/20 04:01:56;;;;;;;5.32;1.52;;;;;;;26.10;49.02;93677.09;6108899;23;20065;-80
2021/06/20 04:04:22;;;;;;;2.35;1.42;;;;;;;26.51;48.55;93676.66;6111653;23;20010;-80
2021/06/20 04:06:48;;;;;;;1.95;1.38;;;;;;;26.72;47.58;93690.16;6112742;23;20085;-80
2021/06/20 04:09:13;;;;;;;5.47;2.58;;;;;;;26.93;46.89;93690.09;6111963;23;20578;-79
2021/06/20 04:11:39;;;;;;;5.20;2.03;;;;;;;27.13;46.76;93699.28;6114891;23;20054;-80
2021/06/20 04:14:04;;;;;;;2.95;2.40;;;;;;;27.07;46.52;93690.03;6084096;23;20076;-79
2021/06/20 04:16:30;;;;;;;11.75;2.17;;;;;;;27.38;45.61;93706.53;6119269;23;20030;-79
2021/06/20 04:18:57;;;;;;;5.13;2.30;;;;;;;27.19;45.97;93701.59;6111387;23;20118;-80
2021/06/20 04:21:24;;;;;;;3.83;1.50;;;;;;;27.17;45.30;93706.66;6085911;23;20020;-79
2021/06/20 04:23:49;;;;;;;6.57;1.40;;;;;;;27.41;44.22;93713.91;6109504;23;20057;-79
2021/06/20 04:26:15;;;;;;;6.20;1.60;;;;;;;27.15;45.84;93710.53;6085817;23;20018;-79
2021/06/20 04:28:41;;;;;;;2.67;1.30;;;;;;;27.88;44.17;93715.94;6116655;23;20356;-80
2021/06/20 04:31:07;;;;;;;4.30;1.45;;;;;;;28.08;43.58;93708.00;6120852;23;20006;-80
2021/06/20 04:33:33;;;;;;;1.40;0.98;;;;;;;28.43;42.92;93696.84;6113201;23;20401;-80
2021/06/20 04:35:58;;;;;;;2.17;1.30;;;;;;;28.19;42.65;93710.66;6083131;23;20026;-79
2021/06/20 04:38:24;;;;;;;2.78;1.30;;;;;;;28.50;43.31;93719.69;6084175;23;20024;-80
2021/06/20 04:40:51;;;;;;;1.95;1.20;;;;;;;29.24;41.16;93713.41;6117788;23;20017;-80
2021/06/20 04:46:00;;;;;;;2.63;1.38;;;;;;;30.16;39.55;93714.84;6123451;23;20133;-80
2021/06/20 04:48:26;;;;;;;4.95;2.08;;;;;;;30.59;39.11;93727.81;6085591;23;20492;-80
2021/06/20 04:50:54;;;;;;;4.88;2.08;;;;;;;30.95;37.89;93726.72;6112008;23;20268;-80
2021/06/20 04:53:19;;;;;;;5.28;2.10;;;;;;;31.27;37.59;93730.81;6112700;23;20029;-80
2021/06/20 04:55:45;;;;;;;4.15;2.88;;;;;;;31.36;37.03;93729.03;6117863;23;20373;-80
2021/06/20 04:58:10;;;;;;;9.07;3.22;;;;;;;31.58;37.02;93734.06;6087057;23;20005;-80
2021/06/20 05:00:36;;;;;;;7.40;4.85;;;;;;;31.21;38.14;93727.78;6124022;23;20340;-79
2021/06/20 05:03:01;;;;;;;7.38;5.03;;;;;;;31.06;38.25;93737.44;6110986;23;20105;-80
2021/06/20 05:05:27;;;;;;;8.75;4.13;;;;;;;31.59;37.59;93741.84;6111459;23;20017;-80
2021/06/20 05:07:52;;;;;;;5.63;4.32;;;;;;;31.93;36.95;93736.00;6118489;23;20013;-84
2021/06/20 05:10:18;;;;;;;6.38;5.82;;;;;;;32.42;36.58;93731.34;6085598;23;20080;-82
2021/06/20 05:12:43;;;;;;;4.63;4.22;;;;;;;32.33;35.48;93738.59;6112314;23;20006;-81
2021/06/20 05:15:09;;;;;;;7.03;4.18;;;;;;;31.49;37.04;93736.56;6084465;23;20029;-82
2021/06/20 05:17:34;;;;;;;6.82;5.32;;;;;;;31.62;37.20;93737.50;6114191;23;20185;-82
2021/06/20 05:20:02;;;;;;;5.18;4.50;;;;;;;32.35;35.90;93733.50;6116793;23;20017;-81
2021/06/20 05:22:28;;;;;;;6.53;4.95;;;;;;;31.51;37.54;93729.50;6080891;23;20041;-80
2021/06/20 05:24:53;;;;;;;6.28;4.63;;;;;;;31.29;37.46;93736.59;6107329;23;20103;-80
2021/06/20 05:27:18;;;;;;;9.75;5.30;;;;;;;31.05;38.22;93735.91;6104507;23;20022;-80
2021/06/20 05:29:44;;;;;;;8.38;6.15;;;;;;;30.82;38.95;93738.66;6100781;23;20014;-80
2021/06/20 05:32:09;;;;;;;6.78;5.53;;;;;;;30.69;39.11;93727.59;6101867;23;20017;-80
2021/06/20 05:34:35;;;;;;;10.18;6.25;;;;;;;30.44;39.25;93747.09;6076762;23;20013;-81
2021/06/20 05:37:01;;;;;;;7.20;6.30;;;;;;;30.37;39.58;93746.44;6106789;23;20017;-80
2021/06/20 05:39:26;;;;;;;9.77;7.38;;;;;;;30.30;40.66;93741.13;6104506;23;20449;-80
2021/06/20 05:41:51;;;;;;;8.13;6.22;;;;;;;30.20;40.58;93739.34;6104946;23;20123;-81
2021/06/20 05:44:17;;;;;;;6.65;5.95;;;;;;;30.86;39.24;93744.81;6080789;23;20017;-81
2021/06/20 05:46:42;;;;;;;7.78;5.75;;;;;;;30.70;39.26;93748.22;6113383;23;20540;-80
2021/06/20 05:49:08;;;;;;;3.70;3.40;;;;;;;31.06;37.95;93745.63;6081195;23;20001;-80
2021/06/20 05:51:33;;;;;;;5.35;3.65;;;;;;;29.76;39.41;93748.56;6117850;23;20013;-81
2021/06/20 05:53:58;;;;;;;3.90;2.33;;;;;;;29.23;40.07;93748.03;6108147;23;20032;-81
2021/06/20 05:56:24;;;;;;;6.82;2.88;;;;;;;28.62;41.45;93749.84;6080303;23;20488;-81
2021/06/20 05:58:49;;;;;;;6.53;2.92;;;;;;;28.22;42.05;93743.25;6113108;23;20018;-80
2021/06/20 06:01:15;;;;;;;3.33;2.38;;;;;;;27.66;43.24;93749.06;6115540;23;20020;-80
2021/06/20 06:03:40;;;;;;;3.88;2.58;;;;;;;27.10;45.31;93746.22;6111618;23;20005;-80
2021/06/20 06:06:05;;;;;;;4.30;3.08;;;;;;;26.78;45.75;93750.91;6109627;23;20476;-80
2021/06/20 06:08:31;;;;;;;5.82;3.00;;;;;;;26.70;47.03;93735.84;6110613;23;20010;-80
2021/06/20 06:10:57;;;;;;;3.92;2.25;;;;;;;26.86;45.50;93728.09;6106807;23;20013;-80
2021/06/20 06:13:22;;;;;;;7.53;2.90;;;;;;;27.30;44.97;93724.03;6106819;23;20109;-81
2021/06/20 06:15:47;;;;;;;3.78;2.35;;;;;;;28.32;43.63;93725.28;6106992;23;20065;-81
2021/06/20 06:18:13;;;;;;;4.43;2.25;;;;;;;29.16;41.86;93722.88;6082628;23;20057;-80
2021/06/20 06:20:38;;;;;;;4.47;2.42;;;;;;;30.07;39.09;93709.16;6105817;23;20062;-81
2021/06/20 06:23:04;;;;;;;4.55;2.60;;;;;;;31.16;37.37;93713.88;6107661;23;20020;-82
2021/06/20 06:25:29;;;;;;;2.70;1.80;;;;;;;31.94;36.06;93706.72;6082368;23;20100;-80
2021/06/20 06:27:55;;;;;;;4.80;1.75;;;;;;;32.17;36.10;93710.06;6119280;23;20001;-80
2021/06/20 06:30:22;;;;;;;3.35;2.22;;;;;;;32.92;34.01;93698.00;6107525;23;20028;-81
2021/06/20 06:32:48;;;;;;;3.10;2.40;;;;;;;33.67;32.72;93713.13;6108123;23;20032;-81
2021/06/20 06:35:14;;;;;;;4.82;2.28;;;;;;;33.52;33.33;93709.22;6112297;23;20029;-81
2021/06/20 06:37:40;;;;;;;4.47;1.92;;;;;;;33.62;32.54;93691.72;6077910;23;20013;-81
2021/06/20 06:40:08;;;;;;;2.35;2.13;;;;;;;33.08;33.15;93700.69;6116238;23;20006;-80
2021/06/20 06:42:34;;;;;;;4.65;1.95;;;;;;;33.16;32.24;93689.53;6082291;23;20405;-81
2021/06/20 06:44:59;;;;;;;2.35;2.03;;;;;;;33.92;31.39;93699.38;6105014;23;20496;-81
2021/06/20 06:47:25;;;;;;;2.28;1.50;;;;;;;33.93;30.60;93700.94;6112766;23;20022;-82
2021/06/20 06:49:51;;;;;;;2.80;2.15;;;;;;;34.17;32.21;93709.56;6108345;23;20045;-81
2021/06/20 06:52:17;;;;;;;6.05;1.92;;;;;;;35.25;30.96;93696.53;6109659;23;20084;-81
2021/06/20 06:54:52;;;;;;;5.72;2.42;;;;;;;35.58;31.24;93716.88;6110286;23;20006;-81
2021/06/20 06:57:23;;;;;;;3.08;2.08;;;;;;;36.16;29.79;93711.53;6109629;23;20105;-81
2021/06/20 06:59:53;;;;;;;2.78;2.03;;;;;;;37.26;28.11;93715.19;6107489;23;20030;-81
2021/06/20 07:02:19;;;;;;;2.20;1.83;;;;;;;37.41;27.97;93724.34;6108539;23;20069;-81
2021/06/20 07:04:46;;;;;;;4.25;1.73;;;;;;;37.62;26.63;93728.19;6106266;23;20010;-82
2021/06/20 07:07:12;;;;;;;2.30;1.80;;;;;;;37.62;27.33;93733.69;6108456;23;20432;-82
2021/06/20 07:09:38;;;;;;;4.30;2.08;;;;;;;37.73;26.18;93718.16;6084272;23;20005;-81
2021/06/20 07:12:03;;;;;;;3.85;2.00;;;;;;;37.87;26.07;93730.56;6110643;23;20077;-82
2021/06/20 07:14:33;;;;;;;1.58;1.48;;;;;;;38.43;25.25;93718.81;6108261;23;20395;-81
2021/06/20 07:16:58;;;;;;;3.10;1.63;;;;;;;38.37;26.25;93714.38;6112825;23;20049;-82
2021/06/20 07:19:24;;;;;;;1.80;1.70;;;;;;;37.77;25.54;93715.25;6106547;23;21033;-81
2021/06/20 07:21:49;;;;;;;2.33;1.85;;;;;;;37.42;26.56;93714.09;6118996;23;20005;-82
2021/06/20 07:24:17;;;;;;;5.03;2.08;;;;;;;37.59;26.41;93712.53;6104830;23;20030;-83
2021/06/20 07:26:43;;;;;;;1.73;1.60;;;;;;;37.42;26.38;93706.59;6082258;23;20069;-82
2021/06/20 07:29:08;;;;;;;4.70;1.60;;;;;;;37.14;27.28;93705.84;6113714;23;20033;-84
2021/06/20 07:31:34;;;;;;;2.40;1.70;;;;;;;37.00;27.05;93702.94;6114592;23;20373;-82
2021/06/20 07:33:59;;;;;;;2.25;1.27;;;;;;;36.75;27.54;93695.75;6110095;23;20029;-80
2021/06/20 07:36:25;;;;;;;3.10;1.90;;;;;;;36.89;27.32;93698.69;6091068;23;20793;-80
2021/06/20 07:38:50;;;;;;;4.82;2.35;;;;;;;36.34;26.76;93697.06;6091447;23;20016;-77
2021/06/20 07:41:15;;;;;;;2.45;1.70;;;;;;;36.77;27.14;93694.06;6099304;23;20472;-83
2021/06/20 07:43:42;;;;;;;4.50;1.90;;;;;;;37.16;26.91;93686.88;6072698;23;20421;-83
2021/06/20 07:46:07;;;;;;;4.53;1.90;;;;;;;37.12;25.71;93702.81;6074832;23;20112;-82
2021/06/20 07:48:35;;;;;;;6.78;2.67;;;;;;;36.38;26.60;93690.19;6103501;23;20105;-80
2021/06/20 07:51:00;;;;;;;2.10;1.90;;;;;;;36.92;27.05;93696.97;6101598;23;20038;-80
2021/06/20 07:53:25;;;;;;;2.53;1.63;;;;;;;38.06;25.11;93704.44;6099854;23;20354;-80
2021/06/20 07:55:51;;;;;;;2.78;1.30;;;;;;;38.39;25.11;93703.66;6075913;23;20013;-80
2021/06/20 07:58:16;;;;;;;2.72;1.80;;;;;;;38.85;23.88;93688.34;6105816;23;20006;-80
2021/06/20 08:00:42;;;;;;;3.65;1.77;;;;;;;39.39;24.21;93686.38;6117453;23;20456;-80
2021/06/20 08:03:08;;;;;;;3.97;1.42;;;;;;;40.19;23.03;93691.47;6103328;23;20419;-81
2021/06/20 08:05:34;;;;;;;2.05;1.95;;;;;;;40.31;22.80;93692.41;6102132;23;20330;-80
2021/06/20 08:07:59;;;;;;;2.30;1.50;;;;;;;41.05;21.64;93688.06;6078492;23;20025;-80
2021/06/20 08:10:25;;;;;;;3.05;1.73;;;;;;;41.58;21.59;93694.44;6078701;23;20426;-80
2021/06/20 08:12:50;;;;;;;3.88;1.40;;;;;;;41.83;21.25;93686.06;6115995;23;20006;-80
2021/06/20 08:15:16;;;;;;;1.55;1.38;;;;;;;42.48;20.84;93702.19;6102915;23;20038;-80
2021/06/20 08:17:42;;;;;;;1.92;1.60;;;;;;;42.17;19.28;93698.22;6100568;23;20037;-80
2021/06/20 08:20:11;;;;;;;3.92;1.50;;;;;;;42.00;20.59;93702.88;6108887;23;20022;-80
2021/06/20 08:22:36;;;;;;;3.15;1.50;;;;;;;40.63;21.59;93702.41;6103485;23;20546;-80
2021/06/20 08:25:03;;;;;;;1.95;1.38;;;;;;;40.19;22.42;93699.00;6116198;23;20480;-80
2021/06/20 08:27:28;;;;;;;3.20;1.80;;;;;;;40.28;22.77;93704.41;6107383;23;20025;-80
2021/06/20 08:29:55;;;;;;;5.10;2.35;;;;;;;39.90;22.93;93702.56;6108992;23;20032;-80
2021/06/20 08:32:21;;;;;;;2.00;1.35;;;;;;;39.77;22.39;93700.13;6106548;23;20018;-80
2021/06/20 08:34:47;;;;;;;3.25;1.45;;;;;;;39.65;24.26;93698.38;6084302;23;20439;-80
2021/06/20 08:37:12;;;;;;;3.25;1.50;;;;;;;40.37;23.03;93692.47;6103475;23;20017;-79
2021/06/20 08:39:37;;;;;;;2.40;1.38;;;;;;;40.91;21.79;93701.97;6110201;23;20071;-80
2021/06/20 08:42:03;;;;;;;2.35;1.65;;;;;;;40.24;21.83;93696.31;6082544;23;20348;-80
2021/06/20 08:44:31;;;;;;;2.35;1.45;;;;;;;39.88;22.62;93693.97;6109755;23;20104;-79
2021/06/20 08:46:58;;;;;;;2.25;1.65;;;;;;;39.14;22.50;93709.00;6113426;23;20050;-79
2021/06/20 08:49:25;;;;;;;2.05;1.48;;;;;;;38.94;22.73;93713.16;6080315;23;20087;-80
2021/06/20 08:51:53;;;;;;;1.70;1.40;;;;;;;38.63;23.63;93707.22;6119489;23;20084;-80
2021/06/20 08:54:18;;;;;;;3.10;1.40;;;;;;;38.48;24.11;93714.66;6098927;23;20018;-80
2021/06/20 08:56:44;;;;;;;2.40;1.23;;;;;;;37.47;25.13;93710.72;6102860;23;20037;-80
2021/06/20 08:59:13;;;;;;;2.20;1.17;;;;;;;37.40;24.09;93700.00;6104803;23;20018;-79
2021/06/20 09:01:38;;;;;;;1.48;1.30;;;;;;;36.91;24.35;93703.69;6114001;23;20515;-79
2021/06/20 09:04:03;;;;;;;2.50;1.40;;;;;;;36.10;25.61;93699.56;6117772;23;20081;-80
2021/06/20 09:06:29;;;;;;;2.42;1.50;;;;;;;36.61;26.07;93693.59;6106122;23;20021;-82
2021/06/20 09:09:00;;;;;;;3.25;1.88;;;;;;;36.86;25.29;93685.03;6078202;23;20018;-83
2021/06/20 09:11:34;;;;;;;2.85;1.75;;;;;;;37.44;25.65;93697.84;6110761;23;20018;-81
2021/06/20 09:14:08;;;;;;;3.00;1.42;;;;;;;37.40;25.75;93686.22;6112600;23;20765;-81
2021/06/20 09:16:52;;;;;;;3.50;1.50;;;;;;;37.36;25.30;93691.91;6115110;23;20026;-81
2021/06/20 09:19:29;;;;;;;3.00;1.63;;;;;;;35.22;27.86;93684.47;6079300;23;20002;-80
2021/06/20 09:22:04;;;;;;;2.03;1.55;;;;;;;33.44;30.51;93688.72;6083848;23;20380;-81
2021/06/20 09:24:30;;;;;;;6.40;2.40;;;;;;;32.79;30.53;93697.19;6106512;23;20025;-80
2021/06/20 09:27:00;;;;;;;3.92;2.30;;;;;;;31.61;33.04;93686.78;6110814;23;20060;-80
2021/06/20 09:29:31;;;;;;;2.47;1.60;;;;;;;31.06;33.36;93691.06;6105217;23;20029;-80
2021/06/20 09:32:00;;;;;;;2.65;1.90;;;;;;;31.26;33.00;93683.63;6080975;23;20344;-81
2021/06/20 09:34:25;;;;;;;5.75;1.98;;;;;;;31.16;33.82;93692.78;6078960;23;20037;-81
2021/06/20 09:37:04;;;;;;;2.47;1.50;;;;;;;31.05;33.68;93692.22;6117627;23;20513;-80
2021/06/20 09:39:30;;;;;;;3.00;1.55;;;;;;;31.15;33.54;93691.25;6107331;23;20025;-80
2021/06/20 09:42:05;;;;;;;26.15;8.18;;;;;;;31.96;34.84;93682.47;6103812;23;20080;-80
2021/06/20 09:44:43;;;;;;;3.50;1.67;;;;;;;32.73;31.85;93689.94;6108563;23;20159;-80
2021/06/20 09:47:13;;;;;;;3.05;1.40;;;;;;;32.39;33.38;93671.25;6074970;23;20084;-80
2021/06/20 09:49:43;;;;;;;2.53;1.45;;;;;;;32.36;31.36;93666.63;6102976;23;20456;-81
2021/06/20 09:52:10;;;;;;;3.83;1.50;;;;;;;32.52;31.24;93672.09;6104560;23;20021;-80
2021/06/20 09:54:57;;;;;;;2.00;1.20;;;;;;;32.34;31.68;93661.63;6081775;23;20002;-80
2021/06/20 09:57:23;;;;;;;3.30;1.55;;;;;;;32.38;31.96;93667.75;6108173;23;20072;-80
2021/06/20 10:00:04;;;;;;;1.58;1.10;;;;;;;32.20;32.13;93660.03;6106630;23;20112;-80
2021/06/20 10:02:35;;;;;;;1.90;1.10;;;;;;;32.13;32.32;93664.88;6107686;23;20026;-80
2021/06/20 10:05:00;;;;;;;3.03;1.13;;;;;;;31.78;32.33;93671.94;6111398;23;20022;-79
2021/06/20 10:07:29;;;;;;;2.90;1.25;;;;;;;31.42;32.36;93660.28;6107682;23;20330;-80
2021/06/20 10:09:59;;;;;;;3.10;1.00;;;;;;;31.22;33.17;93655.63;6107640;23;20009;-80
2021/06/20 10:12:28;;;;;;;3.78;1.25;;;;;;;31.05;34.02;93643.09;6103164;23;20029;-80
2021/06/20 10:14:56;;;;;;;3.42;1.33;;;;;;;31.17;34.04;93656.13;6108206;23;20104;-79
2021/06/20 10:17:32;;;;;;;1.45;1.25;;;;;;;31.37;32.95;93651.38;6104509;23;20034;-80
2021/06/20 10:20:05;;;;;;;2.63;1.80;;;;;;;31.21;34.71;93634.97;6081770;23;20017;-79
2021/06/20 10:22:39;;;;;;;1.50;1.00;;;;;;;31.10;33.41;93636.38;6079555;23;20014;-79
2021/06/20 10:25:23;;;;;;;1.27;1.10;;;;;;;30.94;33.33;93642.53;6083008;23;20009;-80
2021/06/20 10:28:03;;;;;;;3.40;1.23;;;;;;;31.39;33.03;93640.81;6106577;23;20018;-80
2021/06/20 10:30:33;;;;;;;2.67;1.25;;;;;;;31.11;33.09;93641.44;6091890;23;20022;-79
2021/06/20 10:33:08;;;;;;;4.22;1.88;;;;;;;30.97;34.49;93636.25;6089898;23;20151;-80
2021/06/20 10:35:34;;;;;;;4.50;1.35;;;;;;;31.05;36.23;93640.38;6109384;23;20366;-79
2021/06/20 10:38:00;;;;;;;2.05;1.50;;;;;;;30.63;35.98;93643.94;6091583;23;20025;-79
2021/06/20 10:40:30;;;;;;;2.45;1.88;;;;;;;30.10;36.29;93640.97;6078690;23;20456;-80
2021/06/20 10:43:00;;;;;;;4.85;1.67;;;;;;;29.89;36.02;93627.72;6107535;23;20002;-80
2021/06/20 10:45:36;;;;;;;1.30;1.20;;;;;;;29.78;37.49;93629.03;6078443;23;20343;-79
2021/06/20 10:48:23;;;;;;;2.30;1.60;;;;;;;29.78;38.72;93626.31;6077357;23;20025;-80
2021/06/20 10:50:57;;;;;;;3.95;1.60;;;;;;;29.78;38.25;93624.38;6108371;23;20105;-78
2021/06/20 10:53:24;;;;;;;2.30;1.48;;;;;;;29.51;37.85;93621.69;6078824;23;20455;-80
2021/06/20 10:55:58;;;;;;;2.70;1.80;;;;;;;29.23;40.31;93624.78;6092389;23;20043;-80
2021/06/20 10:58:25;;;;;;;2.47;1.98;;;;;;;29.07;40.68;93621.91;6102170;23;20133;-81
2021/06/20 11:01:11;;;;;;;1.92;1.73;;;;;;;29.04;40.56;93620.00;6102517;23;20013;-80
2021/06/20 11:03:37;;;;;;;3.00;1.77;;;;;;;28.94;39.60;93615.47;6105492;23;20041;-80
2021/06/20 11:06:02;;;;;;;2.20;1.55;;;;;;;28.78;39.90;93607.94;6101618;23;20025;-80
2021/06/20 11:08:43;;;;;;;4.05;1.70;;;;;;;28.67;39.13;93608.03;6076798;23;20022;-79
2021/06/20 11:11:17;;;;;;;1.70;1.60;;;;;;;28.42;40.63;93608.31;6105379;23;20026;-80
2021/06/20 11:13:45;;;;;;;;;;;;;;;28.65;39.99;93613.09;6113151;23;20520;-78
2021/06/20 11:16:16;;;;;;;4.47;3.13;;;;;;;28.54;40.40;93601.56;6080804;23;19913;-80
2021/06/20 11:18:42;;;;;;;2.85;1.50;;;;;;;29.06;37.70;93607.53;6117340;23;20100;-81
2021/06/20 11:21:07;;;;;;;2.08;1.30;;;;;;;29.23;37.97;93600.28;6089955;23;20400;-81
2021/06/20 11:23:33;;;;;;;1.33;1.20;;;;;;;29.62;36.65;93599.72;6109683;23;20022;-80
2021/06/20 11:26:00;;;;;;;1.92;1.40;;;;;;;29.44;37.49;93593.78;6107771;23;20122;-80
2021/06/20 11:28:26;;;;;;;3.65;2.05;;;;;;;29.70;37.25;93588.31;6104705;23;20068;-80
2021/06/20 11:31:09;;;;;;;3.65;1.27;;;;;;;29.80;35.48;93577.66;6117107;23;20625;-80
2021/06/20 11:33:35;;;;;;;1.27;1.17;;;;;;;29.48;36.64;93578.94;6101150;23;20052;-80
2021/06/20 11:36:01;;;;;;;2.33;1.40;;;;;;;29.32;37.51;93570.66;6110620;23;20574;-80